LICR/REG METAR and TAF weather

Enter ICAO airport designator
Station Type Date Time Source
LICR METAR 2018/12/10 12:50 UTC NOAA

LICR 101250Z 33015KT 9999 FEW030 18/09 Q1013


Station Type Date Time Source
LICR Decoded METAR 2018/12/10 12:50 UTC NOAA

Reggio Calabria, Italy (LICR) 38-04N 015-39E 21M
Dec 10, 2018 - 07:50 AM EST / 2018.12.10 1250 UTC
Wind: from the NNW (330 degrees) at 17 MPH (15 KT):0
Visibility: greater than 7 mile(s):0
Sky conditions: mostly clear
Temperature: 64 F (18 C)
Dew Point: 48 F (9 C)
Relative Humidity: 55%
Pressure (altimeter): 29.91 in. Hg (1013 hPa)
ob: LICR 101250Z 33015KT 9999 FEW030 18/09 Q1013
cycle: 13

Station Type Date Time Source
LICR TAF 2018/12/10 12:21 UTC NOAA

TAF LICR 101100Z 1012/1112 34015KT 9999 SCT030
TEMPO 1012/1018 4000 TSRA


Example: see airport list